createdAt,value
2023-01-03T00:00:19.017Z,16.09
2023-01-03T00:02:55.515Z,16.08
2023-01-03T00:05:25.503Z,16.27
2023-01-03T00:07:55.264Z,16.26
2023-01-03T00:10:31.276Z,15.94
2023-01-03T00:13:04.752Z,16.23
2023-01-03T00:15:39.472Z,15.98
2023-01-03T00:18:08.864Z,16.19
2023-01-03T00:20:38.851Z,16.03
2023-01-03T00:23:11.188Z,15.97
2023-01-03T00:25:46.801Z,16.10
2023-01-03T00:28:16.987Z,16.22
2023-01-03T00:30:48.957Z,16.21
2023-01-03T00:33:17.342Z,16.03
2023-01-03T00:35:48.980Z,16.15
2023-01-03T00:38:18.106Z,16.16
2023-01-03T00:40:50.292Z,15.90
2023-01-03T00:43:31.379Z,15.88
2023-01-03T00:46:01.526Z,15.94
2023-01-03T00:48:33.501Z,16.11
2023-01-03T00:51:11.332Z,16.00
2023-01-03T00:53:42.503Z,15.94
2023-01-03T00:56:20.869Z,15.97
2023-01-03T00:59:03.259Z,15.85
2023-01-03T01:01:55.385Z,16.08
2023-01-03T01:04:33.188Z,15.80
2023-01-03T01:07:04.641Z,15.90
2023-01-03T01:09:37.013Z,15.97
2023-01-03T01:12:05.804Z,15.95
2023-01-03T01:14:33.802Z,16.00
2023-01-03T01:17:07.430Z,16.04
2023-01-03T01:19:46.000Z,15.76
2023-01-03T01:22:15.789Z,15.99
2023-01-03T01:24:45.124Z,15.79
2023-01-03T01:27:18.131Z,15.76
2023-01-03T01:29:46.824Z,15.94
2023-01-03T01:32:14.012Z,15.97
2023-01-03T01:34:41.941Z,15.98
2023-01-03T01:37:12.376Z,15.68
2023-01-03T01:39:42.585Z,15.77
2023-01-03T01:42:37.229Z,15.80
2023-01-03T01:45:09.254Z,15.76
2023-01-03T01:47:45.730Z,15.88
2023-01-03T01:50:29.647Z,15.71
2023-01-03T01:52:59.483Z,15.90
2023-01-03T01:55:34.922Z,15.86
2023-01-03T01:58:04.855Z,15.81
2023-01-03T02:00:36.635Z,15.74
2023-01-03T02:03:08.066Z,15.65
2023-01-03T02:05:44.999Z,15.61
2023-01-03T02:08:12.973Z,15.75
2023-01-03T02:10:49.245Z,16.01
2023-01-03T02:13:33.886Z,16.00
2023-01-03T02:16:31.586Z,16.00
2023-01-03T02:19:36.895Z,15.97
2023-01-03T02:22:37.230Z,15.94
2023-01-03T02:25:28.002Z,15.95
2023-01-03T02:28:32.904Z,15.92
2023-01-03T02:31:15.119Z,15.45
2023-01-03T02:33:50.026Z,15.90
2023-01-03T02:36:28.272Z,15.90
2023-01-03T02:39:07.508Z,15.89
2023-01-03T02:42:12.961Z,15.88
2023-01-03T02:44:49.835Z,15.86
2023-01-03T02:47:21.440Z,15.80
2023-01-03T02:49:52.810Z,15.86
2023-01-03T02:52:26.655Z,15.86
2023-01-03T02:55:01.975Z,15.85
2023-01-03T02:57:38.555Z,15.81
2023-01-03T03:00:15.132Z,15.84
2023-01-03T03:02:50.246Z,15.83
2023-01-03T03:05:24.854Z,15.81
2023-01-03T03:07:51.648Z,15.82
2023-01-03T03:10:37.011Z,15.81
2023-01-03T03:13:37.252Z,15.79
2023-01-03T03:16:12.522Z,15.76
2023-01-03T03:18:54.870Z,15.76
2023-01-03T03:21:41.011Z,15.70
2023-01-03T03:24:40.798Z,15.73
2023-01-03T03:27:30.389Z,15.75
2023-01-03T03:30:00.181Z,15.74
2023-01-03T03:32:31.657Z,15.73
2023-01-03T03:35:02.024Z,15.72
2023-01-03T03:37:30.222Z,15.72
2023-01-03T03:40:15.414Z,15.71
2023-01-03T03:43:09.844Z,15.70
2023-01-03T03:45:59.663Z,15.65
2023-01-03T03:48:55.960Z,15.67
2023-01-03T03:51:28.204Z,15.65
2023-01-03T03:53:56.363Z,15.63
2023-01-03T03:56:28.398Z,15.64
2023-01-03T03:59:03.075Z,15.61
2023-01-03T04:01:30.284Z,15.63
2023-01-03T04:04:04.159Z,15.61
2023-01-03T04:06:54.285Z,15.61
2023-01-03T04:09:21.012Z,15.60
2023-01-03T04:11:48.550Z,15.60
2023-01-03T04:14:15.605Z,15.60
2023-01-03T04:16:42.189Z,15.55
2023-01-03T04:19:09.462Z,15.58
2023-01-03T04:21:36.762Z,15.56
2023-01-03T04:24:04.997Z,15.57
2023-01-03T04:26:31.588Z,15.55
2023-01-03T04:28:58.144Z,15.54
2023-01-03T04:31:24.855Z,15.55
2023-01-03T04:33:53.741Z,15.53
2023-01-03T04:36:20.844Z,15.52
2023-01-03T04:38:47.464Z,15.51
2023-01-03T04:41:14.502Z,15.52
2023-01-03T04:43:59.435Z,15.51
2023-01-03T04:46:26.054Z,15.50
2023-01-03T04:48:53.143Z,15.47
2023-01-03T04:51:20.099Z,15.50
2023-01-03T04:53:46.683Z,15.47
2023-01-03T04:56:13.709Z,15.43
2023-01-03T04:58:40.253Z,15.47
2023-01-03T05:01:10.208Z,15.47
2023-01-03T05:03:38.079Z,15.47
2023-01-03T05:06:09.337Z,15.46
2023-01-03T05:08:36.342Z,15.43
2023-01-03T05:11:03.858Z,15.46
2023-01-03T05:13:30.508Z,15.43
2023-01-03T05:15:57.120Z,15.44
2023-01-03T05:18:23.729Z,15.45
2023-01-03T05:21:09.016Z,15.43
2023-01-03T05:23:54.103Z,15.43
2023-01-03T05:26:21.901Z,15.39
2023-01-03T05:28:51.793Z,15.41
2023-01-03T05:31:19.076Z,15.39
2023-01-03T05:33:46.308Z,15.38
2023-01-03T05:36:12.922Z,15.37
2023-01-03T05:38:39.508Z,15.37
2023-01-03T05:41:06.609Z,15.33
2023-01-03T05:43:33.700Z,15.36
2023-01-03T05:46:00.439Z,15.34
2023-01-03T05:48:27.333Z,15.32
2023-01-03T05:50:57.360Z,15.34
2023-01-03T05:53:25.205Z,15.30
2023-01-03T05:55:51.849Z,15.33
2023-01-03T05:58:18.638Z,15.33
2023-01-03T06:00:45.201Z,15.32
2023-01-03T06:03:12.383Z,15.32
2023-01-03T06:05:41.877Z,15.30
2023-01-03T06:08:11.809Z,15.32
2023-01-03T06:10:40.880Z,15.25
2023-01-03T06:13:08.062Z,15.28
2023-01-03T06:15:35.049Z,15.29
2023-01-03T06:18:02.679Z,15.29
2023-01-03T06:20:30.551Z,15.29
2023-01-03T06:22:58.180Z,15.30
2023-01-03T06:25:25.074Z,15.23
2023-01-03T06:27:52.230Z,15.31
2023-01-03T06:30:19.059Z,15.30
2023-01-03T06:32:46.375Z,15.30
2023-01-03T06:35:13.173Z,15.29
2023-01-03T06:37:39.736Z,15.32
2023-01-03T06:40:07.912Z,15.30
2023-01-03T06:42:43.291Z,15.31
2023-01-03T06:45:31.311Z,15.28
2023-01-03T06:48:17.140Z,15.30
2023-01-03T06:51:03.139Z,15.28
2023-01-03T06:53:33.863Z,15.27
2023-01-03T06:56:00.661Z,15.26
2023-01-03T06:58:27.814Z,15.29
2023-01-03T07:00:56.078Z,15.27
2023-01-03T07:03:23.436Z,15.29
2023-01-03T07:05:50.739Z,15.30
2023-01-03T07:08:17.401Z,15.25
2023-01-03T07:10:44.486Z,15.27
2023-01-03T07:13:29.938Z,15.28
2023-01-03T07:15:56.571Z,15.24
2023-01-03T07:18:23.885Z,15.29
2023-01-03T07:20:51.008Z,15.29
2023-01-03T07:23:17.904Z,15.25
2023-01-03T07:25:44.440Z,15.29
2023-01-03T07:28:12.840Z,15.27
2023-01-03T07:30:43.185Z,15.29
2023-01-03T07:33:11.168Z,15.27
2023-01-03T07:35:38.262Z,15.27
2023-01-03T07:38:05.677Z,15.27
2023-01-03T07:40:32.973Z,15.28
2023-01-03T07:43:18.543Z,15.28
2023-01-03T07:45:46.195Z,15.27
2023-01-03T07:48:13.744Z,15.26
2023-01-03T07:50:41.072Z,15.27
2023-01-03T07:53:08.733Z,15.27
2023-01-03T07:55:37.054Z,15.27
2023-01-03T07:58:04.239Z,15.26
2023-01-03T08:00:30.963Z,15.25
2023-01-03T08:02:57.682Z,15.26
2023-01-03T08:05:26.061Z,15.24
2023-01-03T08:07:53.243Z,15.27
2023-01-03T08:10:39.631Z,15.22
2023-01-03T08:13:19.372Z,15.24
2023-01-03T08:15:55.226Z,15.21
2023-01-03T08:18:25.337Z,15.24
2023-01-03T08:20:55.055Z,15.27
2023-01-03T08:23:22.587Z,15.27
2023-01-03T08:25:50.115Z,15.28
2023-01-03T08:28:17.589Z,15.28
2023-01-03T08:30:47.765Z,15.29
2023-01-03T08:33:18.425Z,15.29
2023-01-03T08:36:18.721Z,15.28
2023-01-03T08:38:59.947Z,15.28
2023-01-03T08:41:29.980Z,15.28
2023-01-03T08:44:01.068Z,15.23
2023-01-03T08:46:29.200Z,15.29
2023-01-03T08:48:56.707Z,15.29
2023-01-03T08:51:26.565Z,15.29
2023-01-03T08:53:53.364Z,15.27
2023-01-03T08:56:20.570Z,15.28
2023-01-03T08:58:47.160Z,15.28
2023-01-03T09:01:14.359Z,15.30
2023-01-03T09:03:41.211Z,15.30
2023-01-03T09:06:08.448Z,15.30
2023-01-03T09:08:35.579Z,15.29
2023-01-03T09:11:06.583Z,15.28
2023-01-03T09:13:33.452Z,15.32
2023-01-03T09:16:03.019Z,15.34
2023-01-03T09:18:29.680Z,15.37
2023-01-03T09:20:56.323Z,15.36
2023-01-03T09:23:23.035Z,15.33
2023-01-03T09:25:49.626Z,15.30
2023-01-03T09:28:16.176Z,15.32
2023-01-03T09:30:42.842Z,15.34
2023-01-03T09:33:10.699Z,15.29
2023-01-03T09:35:38.407Z,15.34
2023-01-03T09:38:05.653Z,15.33
2023-01-03T09:40:37.419Z,15.33
2023-01-03T09:43:18.534Z,15.33
2023-01-03T09:45:55.016Z,15.32
2023-01-03T09:48:31.048Z,15.33
2023-01-03T09:51:19.303Z,15.32
2023-01-03T09:54:02.817Z,15.32
2023-01-03T09:56:48.007Z,15.31
2023-01-03T09:59:36.702Z,15.31
2023-01-03T10:02:51.468Z,15.30
2023-01-03T10:05:33.451Z,15.30
2023-01-03T10:08:15.410Z,15.26
2023-01-03T10:11:23.571Z,15.30
2023-01-03T10:14:04.930Z,15.29
2023-01-03T10:17:05.054Z,15.27
2023-01-03T10:19:40.648Z,15.29
2023-01-03T10:22:14.770Z,15.28
2023-01-03T10:24:51.162Z,15.30
2023-01-03T10:27:25.165Z,15.28
2023-01-03T10:29:55.291Z,15.28
2023-01-03T10:33:02.798Z,15.28
2023-01-03T10:35:34.721Z,15.28
2023-01-03T10:38:01.576Z,15.28
2023-01-03T10:40:41.895Z,15.29
2023-01-03T10:43:34.161Z,15.26
2023-01-03T10:46:12.643Z,15.28
2023-01-03T10:51:52.542Z,15.28
2023-01-03T10:54:19.060Z,15.28
2023-01-03T10:56:47.888Z,15.24
2023-01-03T10:59:23.570Z,15.28
2023-01-03T11:02:01.626Z,15.28
2023-01-03T11:04:32.859Z,15.28
2023-01-03T11:07:01.125Z,15.28
2023-01-03T11:09:52.043Z,15.29
2023-01-03T11:12:37.183Z,15.27
2023-01-03T11:15:17.902Z,15.28
2023-01-03T11:18:06.065Z,15.27
2023-01-03T11:21:13.904Z,15.26
2023-01-03T11:23:57.665Z,15.26
2023-01-03T11:26:33.384Z,15.27
2023-01-03T11:29:21.923Z,15.28
2023-01-03T11:32:14.487Z,15.27
2023-01-03T11:35:22.085Z,15.27
2023-01-03T11:38:05.535Z,15.28
2023-01-03T11:40:46.142Z,15.28
2023-01-03T11:43:29.575Z,15.24
2023-01-03T11:46:25.738Z,15.24
2023-01-03T11:49:03.663Z,15.22
2023-01-03T11:51:41.309Z,15.28
2023-01-03T11:54:31.349Z,15.28
2023-01-03T11:57:03.321Z,15.28
2023-01-03T12:00:17.878Z,15.28
2023-01-03T12:03:23.081Z,15.28
2023-01-03T12:06:04.362Z,15.25
2023-01-03T12:08:42.483Z,15.27
2023-01-03T12:11:57.143Z,15.29
2023-01-03T12:14:36.801Z,15.25
2023-01-03T12:17:15.396Z,15.30
2023-01-03T12:20:02.888Z,15.30
2023-01-03T12:22:32.335Z,15.29
2023-01-03T12:25:27.890Z,15.30
2023-01-03T12:28:12.382Z,15.26
2023-01-03T12:30:48.478Z,15.31
2023-01-03T12:33:38.913Z,15.32
2023-01-03T12:36:06.178Z,15.32
2023-01-03T12:38:40.921Z,15.29
2023-01-03T12:41:25.366Z,15.30
2023-01-03T12:44:01.386Z,15.33
2023-01-03T12:46:36.383Z,15.30
2023-01-03T12:49:12.244Z,15.32
2023-01-03T12:51:38.699Z,15.30
2023-01-03T12:54:05.125Z,15.28
2023-01-03T12:56:43.560Z,15.28
2023-01-03T12:59:31.536Z,15.29
2023-01-03T13:02:25.963Z,15.27
2023-01-03T13:05:02.780Z,15.32
2023-01-03T13:07:32.045Z,15.29
2023-01-03T13:10:07.965Z,15.33
2023-01-03T13:12:35.364Z,15.33
2023-01-03T13:15:37.225Z,15.34
2023-01-03T13:18:19.589Z,15.35
2023-01-03T13:20:50.160Z,15.30
2023-01-03T13:23:55.680Z,15.35
2023-01-03T13:26:27.793Z,15.36
2023-01-03T13:29:31.869Z,15.35
2023-01-03T13:32:17.735Z,15.35
2023-01-03T13:34:44.943Z,15.34
2023-01-03T13:37:16.312Z,15.36
2023-01-03T13:39:57.346Z,15.32
2023-01-03T13:42:34.208Z,15.36
2023-01-03T13:45:16.484Z,15.34
2023-01-03T13:47:57.756Z,15.36
2023-01-03T13:50:36.271Z,15.29
2023-01-03T13:53:04.112Z,15.37
2023-01-03T13:55:54.778Z,15.37
2023-01-03T13:58:24.945Z,15.35
2023-01-03T14:00:52.580Z,15.38
2023-01-03T14:03:53.800Z,15.32
2023-01-03T14:06:20.830Z,15.37
2023-01-03T14:08:56.842Z,15.37
2023-01-03T14:11:32.681Z,15.36
2023-01-03T14:14:02.238Z,15.33
2023-01-03T14:16:41.014Z,15.31
2023-01-03T14:19:19.793Z,15.31
2023-01-03T14:22:27.959Z,15.35
2023-01-03T14:24:58.563Z,15.30
2023-01-03T14:27:52.214Z,15.36
2023-01-03T14:30:22.302Z,15.36
2023-01-03T14:32:49.027Z,15.39
2023-01-03T14:35:34.472Z,15.42
2023-01-03T14:38:06.535Z,15.42
2023-01-03T14:40:33.806Z,15.47
2023-01-03T14:43:04.291Z,15.48
2023-01-03T14:45:30.865Z,15.45
2023-01-03T14:47:57.506Z,15.50
2023-01-03T14:50:30.669Z,15.49
2023-01-03T14:53:02.224Z,15.54
2023-01-03T14:55:33.247Z,15.55
2023-01-03T14:58:04.159Z,15.58
2023-01-03T15:00:34.485Z,15.53
2023-01-03T15:03:04.880Z,15.59
2023-01-03T15:05:35.265Z,15.59
2023-01-03T15:08:08.096Z,15.61
2023-01-03T15:10:45.584Z,15.64
2023-01-03T15:13:37.392Z,15.65
2023-01-03T15:16:07.166Z,15.61
2023-01-03T15:18:39.781Z,15.67
2023-01-03T15:21:07.374Z,15.70
2023-01-03T15:23:40.924Z,15.66
2023-01-03T15:26:36.458Z,15.72
2023-01-03T15:29:11.472Z,15.73
2023-01-03T15:31:56.807Z,15.76
2023-01-03T15:34:39.113Z,15.76
2023-01-03T15:37:26.498Z,15.78
2023-01-03T15:39:57.058Z,15.77
2023-01-03T15:42:47.910Z,15.79
2023-01-03T15:45:34.384Z,15.78
2023-01-03T15:48:04.971Z,15.77
2023-01-03T15:50:56.025Z,15.80
2023-01-03T15:53:36.469Z,15.77
2023-01-03T15:56:08.822Z,15.80
2023-01-03T15:58:36.549Z,15.77
2023-01-03T16:01:06.857Z,15.81
2023-01-03T16:03:35.127Z,15.81
2023-01-03T16:06:02.219Z,15.80
2023-01-03T16:08:35.398Z,15.80
2023-01-03T16:11:05.529Z,15.80
2023-01-03T16:13:39.324Z,15.76
2023-01-03T16:16:07.711Z,15.79
2023-01-03T16:18:42.864Z,15.79
2023-01-03T16:21:09.436Z,15.79
2023-01-03T16:23:36.018Z,15.78
2023-01-03T16:26:03.208Z,15.79
2023-01-03T16:28:30.194Z,15.77
2023-01-03T16:31:19.596Z,15.77
2023-01-03T16:33:50.866Z,15.76
2023-01-03T16:36:50.129Z,15.75
2023-01-03T16:39:22.649Z,15.75
2023-01-03T16:42:08.669Z,15.72
2023-01-03T16:44:37.199Z,15.72
2023-01-03T16:47:16.720Z,15.73
2023-01-03T16:49:46.309Z,15.73
2023-01-03T16:52:17.016Z,15.70
2023-01-03T16:54:44.191Z,15.71
2023-01-03T16:57:22.410Z,15.73
2023-01-03T16:59:49.130Z,15.70
2023-01-03T17:02:16.389Z,15.72
2023-01-03T17:04:43.190Z,15.72
2023-01-03T17:07:19.157Z,15.72
2023-01-03T17:09:48.340Z,15.67
2023-01-03T17:12:17.445Z,15.70
2023-01-03T17:14:44.583Z,15.65
2023-01-03T17:17:23.120Z,15.68
2023-01-03T17:20:06.551Z,15.67
2023-01-03T17:22:33.482Z,15.67
2023-01-03T17:25:00.092Z,15.64
2023-01-03T17:27:33.127Z,15.66
2023-01-03T17:30:04.304Z,15.66
2023-01-03T17:32:32.322Z,15.65
2023-01-03T17:34:59.407Z,15.61
2023-01-03T17:37:26.892Z,15.65
2023-01-03T17:39:56.877Z,15.65
2023-01-03T17:42:26.115Z,15.62
2023-01-03T17:45:11.857Z,15.64
2023-01-03T17:48:01.921Z,15.65
2023-01-03T17:50:32.302Z,15.61
2023-01-03T17:53:01.802Z,15.64
2023-01-03T17:55:30.191Z,15.65
2023-01-03T17:58:00.703Z,15.64
2023-01-03T18:00:29.129Z,15.62
2023-01-03T18:02:56.424Z,15.67
2023-01-03T18:05:28.452Z,15.62
2023-01-03T18:07:58.644Z,15.61
2023-01-03T18:10:45.260Z,15.68
2023-01-03T18:13:22.626Z,15.68
2023-01-03T18:15:49.630Z,15.67
2023-01-03T18:18:22.415Z,15.67
2023-01-03T18:20:49.433Z,15.67
2023-01-03T18:23:22.482Z,15.65
2023-01-03T18:25:49.866Z,15.65
2023-01-03T18:28:22.152Z,15.60
2023-01-03T18:30:49.210Z,15.67
2023-01-03T18:33:16.039Z,15.62
2023-01-03T18:35:43.690Z,15.64
2023-01-03T18:38:24.942Z,15.66
2023-01-03T18:40:54.162Z,15.66
2023-01-03T18:43:24.829Z,15.65
2023-01-03T18:45:52.610Z,15.61
2023-01-03T18:48:21.486Z,15.67
2023-01-03T18:50:57.474Z,15.66
2023-01-03T18:53:28.367Z,15.63
2023-01-03T18:55:54.992Z,15.64
2023-01-03T18:58:34.442Z,15.67
2023-01-03T19:01:01.577Z,15.56
2023-01-03T19:03:30.644Z,15.61
2023-01-03T19:05:59.391Z,15.65
2023-01-03T19:08:29.425Z,15.56
2023-01-03T19:11:01.785Z,15.66
2023-01-03T19:13:49.815Z,15.65
2023-01-03T19:16:28.456Z,15.61
2023-01-03T19:18:55.150Z,15.65
2023-01-03T19:21:22.842Z,15.61
2023-01-03T19:24:05.907Z,15.64
2023-01-03T19:26:39.943Z,15.64
2023-01-03T19:29:12.709Z,15.64
2023-01-03T19:31:42.972Z,15.63
2023-01-03T19:34:21.998Z,15.64
2023-01-03T19:36:49.192Z,15.60
2023-01-03T19:39:20.958Z,15.60
2023-01-03T19:42:12.824Z,15.61
2023-01-03T19:44:40.389Z,15.61
2023-01-03T19:47:13.417Z,15.56
2023-01-03T19:49:40.127Z,15.60
2023-01-03T19:52:06.719Z,15.58
2023-01-03T19:54:33.470Z,15.60
2023-01-03T19:57:01.996Z,15.60
2023-01-03T19:59:32.907Z,15.60
2023-01-03T20:02:24.783Z,15.60
2023-01-03T20:04:46.232Z,15.59
2023-01-03T20:07:14.098Z,15.59
2023-01-03T20:09:41.200Z,15.58
2023-01-03T20:12:12.971Z,15.54
2023-01-03T20:14:41.607Z,15.54
2023-01-03T20:17:27.085Z,15.58
2023-01-03T20:19:53.819Z,15.54
2023-01-03T20:23:03.931Z,15.57
2023-01-03T20:25:23.980Z,15.57
2023-01-03T20:27:51.520Z,15.52
2023-01-03T20:30:20.260Z,15.56
2023-01-03T20:32:47.318Z,15.56
2023-01-03T20:36:07.034Z,15.56
2023-01-03T20:38:05.273Z,15.55
2023-01-03T20:40:33.220Z,15.57
2023-01-03T20:43:02.242Z,15.57
2023-01-03T20:45:29.247Z,15.57
2023-01-03T20:47:56.338Z,15.56
2023-01-03T20:50:25.474Z,15.57
2023-01-03T20:52:53.241Z,15.55
2023-01-03T20:55:22.944Z,15.57
2023-01-03T20:57:50.737Z,15.56
2023-01-03T21:00:32.340Z,15.55
2023-01-03T21:03:04.896Z,15.52
2023-01-03T21:05:32.101Z,15.52
2023-01-03T21:08:16.939Z,15.56
2023-01-03T21:10:45.212Z,15.55
2023-01-03T21:13:12.250Z,15.52
2023-01-03T21:15:39.298Z,15.55
2023-01-03T21:18:06.517Z,15.56
2023-01-03T21:20:33.724Z,15.56
2023-01-03T21:23:00.351Z,15.52
2023-01-03T21:25:30.354Z,15.56
2023-01-03T21:27:57.724Z,15.53
2023-01-03T21:30:26.264Z,15.56
2023-01-03T21:32:52.852Z,15.55
2023-01-03T21:35:21.686Z,15.53
2023-01-03T21:37:49.810Z,15.54
2023-01-03T21:40:28.594Z,15.51
2023-01-03T21:43:04.134Z,15.56
2023-01-03T21:45:52.762Z,15.53
2023-01-03T21:48:19.480Z,15.55
2023-01-03T21:50:49.725Z,15.54
2023-01-03T21:53:22.393Z,15.55
2023-01-03T21:55:50.002Z,15.55
2023-01-03T21:58:19.496Z,15.55
2023-01-03T22:00:46.116Z,15.53
2023-01-03T22:03:36.349Z,15.55
2023-01-03T22:06:11.819Z,15.52
2023-01-03T22:08:40.108Z,15.55
2023-01-03T22:11:08.031Z,15.55
2023-01-03T22:13:35.889Z,15.53
2023-01-03T22:16:04.956Z,15.55
2023-01-03T22:18:32.097Z,15.52
2023-01-03T22:21:07.062Z,15.52
2023-01-03T22:23:34.255Z,15.56
2023-01-03T22:26:11.147Z,15.54
2023-01-03T22:28:43.031Z,15.55
2023-01-03T22:31:12.747Z,15.56
2023-01-03T22:33:39.979Z,15.56
2023-01-03T22:36:08.374Z,15.56
2023-01-03T22:38:36.172Z,15.57
2023-01-03T22:41:08.965Z,15.57
2023-01-03T22:43:36.416Z,15.53
2023-01-03T22:46:08.512Z,15.52
2023-01-03T22:48:35.465Z,15.46
2023-01-03T22:51:07.437Z,15.45
2023-01-03T22:53:35.737Z,15.44
2023-01-03T22:56:07.391Z,15.43
2023-01-03T22:58:37.747Z,15.40
2023-01-03T23:01:12.190Z,15.40
2023-01-03T23:03:39.544Z,15.37
2023-01-03T23:06:08.293Z,15.37
2023-01-03T23:08:36.391Z,15.35
2023-01-03T23:11:33.175Z,15.30
2023-01-03T23:14:01.835Z,15.29
2023-01-03T23:16:29.476Z,15.28
2023-01-03T23:18:56.063Z,15.28
2023-01-03T23:21:22.668Z,15.24
2023-01-03T23:23:50.651Z,15.24
2023-01-03T23:26:17.708Z,15.26
2023-01-03T23:28:44.945Z,15.25
2023-01-03T23:31:11.911Z,15.22
2023-01-03T23:33:38.616Z,15.23
2023-01-03T23:36:07.330Z,15.23
2023-01-03T23:38:34.423Z,15.20
2023-01-03T23:41:07.847Z,15.20
2023-01-03T23:43:35.400Z,15.20
2023-01-03T23:46:02.963Z,15.19
2023-01-03T23:48:29.832Z,15.18
2023-01-03T23:51:04.853Z,15.18
2023-01-03T23:53:31.921Z,15.16
2023-01-03T23:55:59.591Z,15.16
2023-01-03T23:58:26.658Z,15.14
